Silves, Brazil
Current Conditions -  °F | °C
As of 2:00 PM on Friday 28 Nov 2014 (Local Time) from SBIC Reporting Station
Broken Clouds Broken Clouds  
Wind Chill: 84°   Ceiling: 10000
Heat Index: 92°   Visibility: 6mi
Dew Point: 75°   Wind: 5mph
Humidity: 74%   Direction: 60°ENE
Pressure: 29.83"   Gusts: NA
Location:  2.83°S, 58.22°W
Report Text: SBIC 281800Z 06004KT 9999 SCT020 BKN100 29/24 Q1010
Loading
Personal Weather Stations






























Interactive Weather Map New forecast layout! Learn more

10-Day Weather Forecast

Advertisements
Track Severe Weather on mobile